Terminal Aerodrome Forecast
Issued by NWS

Home | Current Version | Previous Version | Text Only | Print | Product List | Glossary On
Versions: 1 2 3 4 5 6 7 8 9 10 11 12 13 14 15 16 17 18
000
FTUS44 KLZK 282300
TAFHRO
TAF
KHRO 282326Z 2900/2924 18004KT P6SM FEW110 SCT250
     FM291400 20006KT P6SM VCSH SCT040 BKN110
     FM291900 23009KT 6SM -TSRA SCT025CB BKN040
      TEMPO 2919/2923 VRB15G25KT 4SM +TSRA BR BKN025CB=

USA.gov is the U.S. government's official web portal to all federal, state and local government web resources and services.